createdAt,value
2019-04-05T00:01:53.598Z,9.70
2019-04-05T00:04:58.245Z,9.60
2019-04-05T00:08:02.930Z,9.60
2019-04-05T00:11:07.385Z,9.60
2019-04-05T00:14:11.772Z,9.70
2019-04-05T00:17:16.128Z,9.60
2019-04-05T00:20:20.620Z,9.60
2019-04-05T00:23:24.983Z,9.60
2019-04-05T00:26:29.390Z,9.60
2019-04-05T00:29:34.546Z,9.60
2019-04-05T00:32:38.861Z,9.60
2019-04-05T00:35:43.200Z,9.60
2019-04-05T00:38:47.539Z,9.60
2019-04-05T00:41:51.886Z,9.60
2019-04-05T00:44:56.286Z,9.60
2019-04-05T00:48:00.640Z,9.60
2019-04-05T00:51:05.140Z,9.60
2019-04-05T00:54:09.484Z,9.60
2019-04-05T00:57:13.879Z,9.60
2019-04-05T01:00:18.627Z,9.60
2019-04-05T01:03:23.031Z,9.60
2019-04-05T01:06:27.506Z,9.60
2019-04-05T01:09:31.973Z,9.60
2019-04-05T01:12:36.914Z,9.60
2019-04-05T01:15:41.486Z,9.60
2019-04-05T01:18:46.029Z,9.60
2019-04-05T01:21:50.988Z,9.60
2019-04-05T01:24:55.636Z,9.60
2019-04-05T01:28:00.288Z,9.60
2019-04-05T01:31:04.796Z,9.60
2019-04-05T01:34:09.201Z,9.60
2019-04-05T01:37:13.545Z,9.60
2019-04-05T01:40:18.123Z,9.60
2019-04-05T01:43:22.574Z,9.50
2019-04-05T01:46:26.944Z,9.60
2019-04-05T01:49:31.210Z,9.60
2019-04-05T01:52:35.936Z,9.60
2019-04-05T01:55:40.263Z,9.50
2019-04-05T01:58:44.581Z,9.50
2019-04-05T02:01:49.064Z,9.50
2019-04-05T02:04:53.387Z,9.50
2019-04-05T02:07:57.739Z,9.50
2019-04-05T02:11:02.138Z,9.40
2019-04-05T02:14:06.786Z,9.40
2019-04-05T02:17:11.194Z,9.40
2019-04-05T02:20:15.544Z,9.40
2019-04-05T02:23:19.852Z,9.30
2019-04-05T02:26:24.150Z,9.30
2019-04-05T02:29:28.555Z,9.30
2019-04-05T02:32:33.008Z,9.30
2019-04-05T02:35:39.101Z,9.30
2019-04-05T02:38:43.389Z,9.20
2019-04-05T02:41:48.866Z,9.20
2019-04-05T02:44:54.001Z,9.10
2019-04-05T02:48:02.380Z,9.10
2019-04-05T02:51:26.821Z,9.00
2019-04-05T02:54:32.886Z,9.00
2019-04-05T02:57:37.539Z,9.00
2019-04-05T03:00:44.435Z,8.90
2019-04-05T03:03:48.880Z,8.90
2019-04-05T03:06:53.488Z,8.90
2019-04-05T03:09:59.146Z,8.80
2019-04-05T03:13:03.614Z,8.80
2019-04-05T03:16:13.220Z,8.80
2019-04-05T03:19:21.880Z,8.70
2019-04-05T03:22:28.963Z,8.70
2019-04-05T03:25:33.758Z,8.70
2019-04-05T03:28:40.164Z,8.80
2019-04-05T03:31:44.948Z,8.70
2019-04-05T03:34:49.492Z,8.70
2019-04-05T03:37:54.068Z,8.70
2019-04-05T03:40:58.627Z,8.70
2019-04-05T03:44:03.121Z,8.70
2019-04-05T03:47:07.677Z,8.70
2019-04-05T03:50:12.274Z,8.60
2019-04-05T03:53:16.621Z,8.60
2019-04-05T03:56:21.001Z,8.50
2019-04-05T03:59:25.447Z,8.50
2019-04-05T04:02:29.938Z,8.50
2019-04-05T04:05:34.257Z,8.50
2019-04-05T04:08:38.645Z,8.50
2019-04-05T04:11:43.243Z,8.50
2019-04-05T04:14:47.629Z,8.50
2019-04-05T04:17:51.974Z,8.50
2019-04-05T04:21:01.788Z,8.50
2019-04-05T04:24:07.445Z,8.50
2019-04-05T04:27:12.721Z,8.50
2019-04-05T04:30:17.252Z,8.50
2019-04-05T04:33:21.943Z,8.50
2019-04-05T04:36:26.326Z,8.50
2019-04-05T04:39:30.723Z,8.50
2019-04-05T04:42:35.073Z,8.50
2019-04-05T04:45:39.967Z,8.60
2019-04-05T04:48:45.516Z,8.60
2019-04-05T04:51:50.346Z,8.70
2019-04-05T04:54:54.811Z,8.70
2019-04-05T04:57:59.627Z,8.70
2019-04-05T05:01:04.420Z,8.80
2019-04-05T05:04:09.313Z,8.80
2019-04-05T05:07:13.984Z,8.80
2019-04-05T05:10:19.352Z,8.90
2019-04-05T05:13:24.059Z,8.90
2019-04-05T05:16:28.646Z,9.00
2019-04-05T05:19:33.015Z,9.00
2019-04-05T05:22:40.115Z,9.00
2019-04-05T05:25:46.915Z,9.10
2019-04-05T05:28:51.626Z,9.20
2019-04-05T05:31:56.190Z,9.20
2019-04-05T05:35:02.195Z,9.30
2019-04-05T05:38:06.695Z,9.40
2019-04-05T05:41:11.068Z,9.50
2019-04-05T05:44:15.457Z,9.50
2019-04-05T05:47:19.884Z,9.60
2019-04-05T05:50:24.212Z,9.70
2019-04-05T05:53:28.726Z,9.90
2019-04-05T05:56:33.069Z,10.00
2019-04-05T05:59:37.459Z,10.10
2019-04-05T06:02:41.749Z,10.20
2019-04-05T06:05:46.117Z,10.30
2019-04-05T06:08:50.455Z,10.40
2019-04-05T06:11:54.823Z,10.50
2019-04-05T06:14:59.168Z,10.60
2019-04-05T06:21:09.568Z,10.70
2019-04-05T06:24:13.948Z,10.80
2019-04-05T06:27:18.314Z,10.90
2019-04-05T06:30:22.684Z,11.00
2019-04-05T06:33:31.748Z,11.00
2019-04-05T06:35:39.595Z,10.70
2019-04-05T06:36:33.010Z,11.10
2019-04-05T06:39:37.355Z,11.20
2019-04-05T06:42:42.604Z,11.30
2019-04-05T06:45:46.976Z,11.30
2019-04-05T06:48:51.361Z,11.40
2019-04-05T06:51:56.795Z,11.40
2019-04-05T06:55:01.550Z,11.50
2019-04-05T06:58:05.929Z,11.60
2019-04-05T07:01:10.343Z,11.60
2019-04-05T07:04:14.812Z,11.70
2019-04-05T07:07:19.164Z,11.80
2019-04-05T07:10:23.444Z,11.80
2019-04-05T07:13:27.844Z,11.90
2019-04-05T07:16:32.196Z,11.90
2019-04-05T07:19:36.650Z,12.00
2019-04-05T07:22:41.026Z,12.00
2019-04-05T07:25:45.422Z,12.00
2019-04-05T07:28:49.758Z,12.10
2019-04-05T07:31:54.154Z,12.20
2019-04-05T07:34:58.498Z,12.20
2019-04-05T07:38:02.877Z,12.20
2019-04-05T07:41:07.246Z,12.30
2019-04-05T07:44:11.650Z,12.30
2019-04-05T07:47:16.015Z,12.40
2019-04-05T07:50:20.407Z,12.40
2019-04-05T07:53:24.770Z,12.50
2019-04-05T07:56:29.258Z,12.60
2019-04-05T07:59:35.186Z,12.60
2019-04-05T08:02:39.567Z,12.70
2019-04-05T08:05:44.135Z,12.70
2019-04-05T08:09:02.091Z,12.80
2019-04-05T08:12:05.345Z,12.80
2019-04-05T08:15:10.653Z,12.90
2019-04-05T08:18:14.996Z,12.90
2019-04-05T08:21:19.407Z,13.10
2019-04-05T08:24:23.919Z,13.20
2019-04-05T08:27:28.303Z,13.30
2019-04-05T08:30:32.663Z,13.40
2019-04-05T08:33:37.034Z,13.50
2019-04-05T08:36:41.366Z,13.60
2019-04-05T08:39:45.753Z,13.70
2019-04-05T08:42:50.110Z,13.70
2019-04-05T08:45:54.575Z,13.80
2019-04-05T08:49:10.007Z,14.00
2019-04-05T08:52:05.234Z,14.10
2019-04-05T08:55:09.735Z,14.20
2019-04-05T08:58:14.085Z,14.30
2019-04-05T09:01:18.416Z,14.40
2019-04-05T09:04:22.787Z,14.50
2019-04-05T09:07:27.141Z,14.70
2019-04-05T09:10:31.528Z,14.80
2019-04-05T09:13:35.882Z,14.90
2019-04-05T09:16:40.293Z,15.00
2019-04-05T09:19:44.595Z,15.10
2019-04-05T09:22:48.987Z,15.30
2019-04-05T09:25:55.028Z,15.40
2019-04-05T09:28:59.395Z,15.50
2019-04-05T09:32:03.684Z,15.70
2019-04-05T09:35:08.287Z,15.80
2019-04-05T09:38:12.628Z,15.90
2019-04-05T09:41:16.970Z,16.10
2019-04-05T09:44:23.743Z,16.20
2019-04-05T09:47:27.613Z,16.40
2019-04-05T09:50:31.959Z,16.60
2019-04-05T09:53:36.366Z,16.70
2019-04-05T09:56:40.702Z,16.90
2019-04-05T09:59:46.405Z,17.10
2019-04-05T10:02:50.736Z,17.20
2019-04-05T10:05:55.119Z,17.40
2019-04-05T10:08:59.403Z,17.60
2019-04-05T10:12:04.007Z,17.70
2019-04-05T10:15:09.275Z,17.90
2019-04-05T10:18:13.727Z,18.10
2019-04-05T10:21:18.063Z,18.20
2019-04-05T10:24:22.469Z,18.30
2019-04-05T10:27:26.750Z,18.50
2019-04-05T10:30:31.131Z,18.70
2019-04-05T10:33:35.486Z,18.90
2019-04-05T10:36:39.796Z,19.00
2019-04-05T10:39:44.151Z,19.20
2019-04-05T10:42:48.525Z,19.30
2019-04-05T10:45:52.844Z,19.50
2019-04-05T10:48:57.196Z,19.70
2019-04-05T10:52:01.563Z,19.90
2019-04-05T10:55:07.209Z,20.00
2019-04-05T10:58:11.595Z,20.10
2019-04-05T11:01:15.974Z,20.30
2019-04-05T11:04:20.369Z,20.40
2019-04-05T11:07:24.762Z,20.60
2019-04-05T11:10:29.124Z,20.70
2019-04-05T11:13:33.511Z,20.80
2019-04-05T11:16:37.866Z,21.00
2019-04-05T11:19:42.258Z,21.10
2019-04-05T11:22:46.925Z,21.30
2019-04-05T11:25:51.534Z,21.40
2019-04-05T11:28:55.894Z,21.60
2019-04-05T11:32:00.258Z,21.70
2019-04-05T11:35:05.338Z,21.80
2019-04-05T11:38:09.748Z,21.90
2019-04-05T11:41:14.196Z,22.00
2019-04-05T11:44:18.595Z,22.20
2019-04-05T11:47:22.946Z,22.30
2019-04-05T11:50:34.395Z,22.40
2019-04-05T11:53:33.995Z,22.50
2019-04-05T11:56:38.403Z,22.60
2019-04-05T11:59:42.780Z,22.60
2019-04-05T12:02:50.612Z,22.70
2019-04-05T12:05:54.993Z,22.80
2019-04-05T12:09:01.459Z,22.90
2019-04-05T12:12:05.408Z,23.00
2019-04-05T12:15:10.232Z,23.00
2019-04-05T12:18:17.920Z,23.20
2019-04-05T12:21:20.977Z,23.10
2019-04-05T12:24:28.277Z,23.30
2019-04-05T12:27:32.939Z,23.40
2019-04-05T12:30:38.084Z,23.30
2019-04-05T12:33:42.474Z,23.30
2019-04-05T12:36:46.827Z,23.30
2019-04-05T12:39:51.217Z,23.40
2019-04-05T12:42:55.582Z,23.50
2019-04-05T12:46:00.188Z,23.60
2019-04-05T12:49:04.521Z,23.70
2019-04-05T12:52:21.585Z,23.70
2019-04-05T12:55:15.347Z,23.50
2019-04-05T12:58:19.749Z,23.30
2019-04-05T13:01:24.095Z,23.10
2019-04-05T13:04:28.466Z,22.90
2019-04-05T13:07:35.069Z,22.70
2019-04-05T13:10:39.189Z,22.80
2019-04-05T13:13:44.528Z,22.90
2019-04-05T13:16:49.692Z,23.00
2019-04-05T13:19:54.084Z,23.10
2019-04-05T13:22:58.452Z,23.30
2019-04-05T13:26:02.783Z,23.20
2019-04-05T13:29:07.200Z,23.20
2019-04-05T13:32:11.531Z,23.10
2019-04-05T13:35:16.963Z,22.90
2019-04-05T13:38:21.454Z,22.70
2019-04-05T13:41:25.830Z,22.50
2019-04-05T13:44:31.879Z,22.40
2019-04-05T13:47:38.958Z,22.20
2019-04-05T13:50:42.731Z,22.10
2019-04-05T13:53:47.128Z,21.90
2019-04-05T13:56:51.423Z,21.80
2019-04-05T13:59:55.928Z,21.70
2019-04-05T14:03:00.495Z,21.70
2019-04-05T14:06:04.874Z,21.80
2019-04-05T14:09:10.476Z,21.80
2019-04-05T14:12:15.276Z,21.90
2019-04-05T14:15:19.645Z,21.90
2019-04-05T14:18:24.045Z,22.00
2019-04-05T14:21:39.740Z,22.10
2019-04-05T14:24:34.559Z,22.10
2019-04-05T14:27:38.907Z,22.20
2019-04-05T14:30:43.338Z,22.20
2019-04-05T14:33:47.675Z,22.30
2019-04-05T14:36:52.413Z,22.40
2019-04-05T14:39:56.827Z,22.40
2019-04-05T14:43:01.209Z,22.50
2019-04-05T14:46:05.555Z,22.50
2019-04-05T14:49:09.958Z,22.50
2019-04-05T14:52:14.678Z,22.50
2019-04-05T14:55:19.031Z,22.50
2019-04-05T14:58:23.337Z,22.50
2019-04-05T15:01:27.738Z,22.50
2019-04-05T15:04:32.099Z,22.40
2019-04-05T15:07:37.995Z,22.30
2019-04-05T15:10:42.582Z,22.30
2019-04-05T15:13:46.964Z,22.20
2019-04-05T15:16:51.343Z,22.20
2019-04-05T15:19:57.744Z,22.10
2019-04-05T15:23:02.140Z,22.00
2019-04-05T15:26:06.528Z,21.90
2019-04-05T15:29:10.880Z,21.80
2019-04-05T15:32:15.385Z,21.70
2019-04-05T15:35:19.663Z,21.50
2019-04-05T15:38:24.060Z,21.40
2019-04-05T15:41:28.434Z,21.30
2019-04-05T15:44:32.802Z,21.20
2019-04-05T15:47:37.283Z,21.10
2019-04-05T15:50:41.660Z,21.00
2019-04-05T15:53:46.434Z,20.90
2019-04-05T15:56:50.846Z,20.80
2019-04-05T15:59:55.310Z,20.70
2019-04-05T16:03:00.401Z,20.60
2019-04-05T16:06:05.899Z,20.50
2019-04-05T16:09:14.895Z,20.40
2019-04-05T16:12:19.484Z,20.20
2019-04-05T16:15:23.903Z,20.10
2019-04-05T16:18:28.406Z,20.00
2019-04-05T16:21:32.810Z,19.80
2019-04-05T16:24:37.164Z,19.60
2019-04-05T16:27:41.640Z,19.50
2019-04-05T16:30:46.059Z,19.40
2019-04-05T16:33:50.418Z,19.30
2019-04-05T16:36:56.195Z,19.20
2019-04-05T16:40:00.701Z,19.10
2019-04-05T16:43:05.320Z,18.90
2019-04-05T16:46:09.710Z,18.80
2019-04-05T16:49:14.074Z,18.70
2019-04-05T16:52:18.489Z,18.60
2019-04-05T16:55:22.879Z,18.50
2019-04-05T16:58:28.056Z,18.40
2019-04-05T17:01:32.353Z,18.20
2019-04-05T17:04:36.835Z,18.10
2019-04-05T17:07:41.224Z,18.00
2019-04-05T17:10:45.942Z,17.90
2019-04-05T17:13:50.307Z,17.80
2019-04-05T17:16:54.723Z,17.70
2019-04-05T17:19:59.120Z,17.50
2019-04-05T17:23:03.535Z,17.40
2019-04-05T17:26:07.914Z,17.30
2019-04-05T17:29:12.290Z,17.10
2019-04-05T17:32:16.656Z,17.00
2019-04-05T17:35:21.078Z,16.80
2019-04-05T17:38:27.279Z,16.70
2019-04-05T17:41:31.603Z,16.50
2019-04-05T17:44:36.005Z,16.40
2019-04-05T17:47:40.538Z,16.20
2019-04-05T17:50:45.043Z,16.10
2019-04-05T17:53:49.755Z,15.90
2019-04-05T17:56:54.401Z,15.80
2019-04-05T17:59:58.877Z,15.60
2019-04-05T18:03:03.640Z,15.40
2019-04-05T18:06:08.271Z,15.30
2019-04-05T18:09:12.638Z,15.20
2019-04-05T18:12:17.136Z,15.10
2019-04-05T18:15:21.534Z,15.00
2019-04-05T18:18:27.435Z,14.80
2019-04-05T18:21:31.756Z,14.70
2019-04-05T18:24:36.179Z,14.70
2019-04-05T18:27:41.200Z,14.60
2019-04-05T18:30:45.591Z,14.50
2019-04-05T18:33:49.982Z,14.40
2019-04-05T18:36:54.496Z,14.30
2019-04-05T18:39:58.822Z,14.20
2019-04-05T18:43:03.470Z,14.10
2019-04-05T18:46:08.521Z,14.00
2019-04-05T18:49:12.936Z,13.80
2019-04-05T18:52:17.309Z,13.80
2019-04-05T18:55:22.258Z,13.70
2019-04-05T18:58:26.645Z,13.60
2019-04-05T19:01:31.059Z,13.60
2019-04-05T19:04:35.458Z,13.50
2019-04-05T19:07:39.861Z,13.40
2019-04-05T19:10:44.360Z,13.40
2019-04-05T19:14:00.346Z,13.40
2019-04-05T19:16:55.642Z,13.30
2019-04-05T19:20:00.285Z,13.20
2019-04-05T19:23:04.980Z,13.10
2019-04-05T19:26:09.428Z,13.00
2019-04-05T19:29:13.819Z,12.90
2019-04-05T19:51:00.421Z,12.40
2019-04-05T19:54:04.794Z,12.40
2019-04-05T19:57:09.414Z,12.30
2019-04-05T20:00:14.672Z,12.30
2019-04-05T20:03:19.493Z,12.20
2019-04-05T20:06:23.860Z,12.20
2019-04-05T20:09:28.491Z,12.10
2019-04-05T20:12:35.119Z,12.10
2019-04-05T20:15:39.838Z,12.00
2019-04-05T20:18:44.230Z,11.90
2019-04-05T20:21:48.627Z,11.90
2019-04-05T20:24:55.067Z,11.80
2019-04-05T20:27:59.483Z,11.70
2019-04-05T20:31:04.051Z,11.60
2019-04-05T20:34:11.694Z,11.60
2019-04-05T20:37:16.057Z,11.60
2019-04-05T20:40:20.524Z,11.50
2019-04-05T20:43:24.895Z,11.40
2019-04-05T20:46:29.383Z,11.40
2019-04-05T20:49:33.813Z,11.40
2019-04-05T20:52:38.238Z,11.40
2019-04-05T20:55:42.564Z,11.30
2019-04-05T20:58:46.943Z,11.30
2019-04-05T21:01:52.195Z,11.30
2019-04-05T21:04:56.755Z,11.30
2019-04-05T21:08:01.122Z,11.30
2019-04-05T21:11:05.653Z,11.30
2019-04-05T21:14:11.748Z,11.30
2019-04-05T21:17:16.081Z,11.30
2019-04-05T21:20:20.491Z,11.30
2019-04-05T21:23:24.899Z,11.30
2019-04-05T21:26:29.366Z,11.30
2019-04-05T21:29:33.907Z,11.30
2019-04-05T21:32:38.195Z,11.30
2019-04-05T21:35:42.913Z,11.30
2019-04-05T21:38:47.284Z,11.30
2019-04-05T21:41:51.584Z,11.30
2019-04-05T21:44:56.960Z,11.30
2019-04-05T21:48:01.426Z,11.40
2019-04-05T21:51:05.747Z,11.30
2019-04-05T21:54:10.142Z,11.30
2019-04-05T21:57:14.609Z,11.40
2019-04-05T22:00:24.806Z,11.30
2019-04-05T22:03:29.257Z,11.40
2019-04-05T22:06:33.784Z,11.30
2019-04-05T22:09:38.267Z,11.30
2019-04-05T22:12:42.711Z,11.30
2019-04-05T22:15:47.111Z,11.30
2019-04-05T22:18:51.576Z,11.30
2019-04-05T22:21:55.951Z,11.40
2019-04-05T22:25:00.382Z,11.30
2019-04-05T22:28:04.785Z,11.30
2019-04-05T22:31:09.225Z,11.30
2019-04-05T22:34:13.657Z,11.30
2019-04-05T22:37:18.087Z,11.20
2019-04-05T22:40:22.734Z,11.20
2019-04-05T22:43:27.106Z,11.20
2019-04-05T22:46:31.463Z,11.20
2019-04-05T22:49:35.854Z,11.20
2019-04-05T22:52:40.307Z,11.20
2019-04-05T22:55:44.679Z,11.20
2019-04-05T22:58:49.021Z,11.20
2019-04-05T23:01:53.422Z,11.20
2019-04-05T23:04:57.797Z,11.20
2019-04-05T23:08:02.166Z,11.20
2019-04-05T23:11:06.514Z,11.20
2019-04-05T23:14:10.903Z,11.20
2019-04-05T23:17:15.204Z,11.20
2019-04-05T23:20:19.603Z,11.10
2019-04-05T23:23:23.943Z,11.10
2019-04-05T23:26:28.994Z,11.10
2019-04-05T23:29:33.399Z,11.00
2019-04-05T23:32:37.788Z,11.00
2019-04-05T23:35:42.155Z,11.00
2019-04-05T23:38:46.766Z,10.90
2019-04-05T23:41:51.300Z,10.90
2019-04-05T23:44:55.731Z,10.80
2019-04-05T23:48:00.085Z,10.80
2019-04-05T23:51:04.481Z,10.70
2019-04-05T23:54:08.841Z,10.70
2019-04-05T23:57:13.203Z,10.60
